avis per tempestes more information blitzortung!


avis per Pluja more information rain snow radar


Visita la nostra xarxa de llocs de meteo:

Template documentation
and downloads

And another site



Thunderstorms From: 18-09-2018 09:00 Until: 19-09-2018 20:59 warning for: Thunderstorms Level: Yellow info button
Rain From: 18-09-2018 09:00 Until: 19-09-2018 20:59 warning for: Rain Level: Yellow info button

Pagina Historial Weather Underground text

Diari Resum Juny 29, 2017 Unitats:  Imperial    Mètric   Tant
« Previous Dia
SegĂźent Dia »
Diari Setmana Mensual Anual Personalitzada
  Maxima: Minima: Media:
Temperatura: TemperatureC °F 15.1 °F 22.4 °F
Punt de rosada: DewpointC °F 1.9 °F 6.5 °F
Humitat: Humidity % 22 % 38 %
Wind Speed: WindSpeedKMH mph 0.0 mph 9.1 mph
RĂ fegues de vent: WindSpeedGustKMH mph - -
Vent:- - SW
Pression baro: PressurehPa in 1005.0 in -
Precipitacions: 0.0 in    
Historical Graphs
 
 
Dades de taula per Juny 29, 2017
Temps Temperatura Punt de rosada Pression baro Vent Wind Speed RĂ fegues de vent Humitat Rainfall Rate (Hourly)
TemperatureC °F DewpointC °F PressurehPa in Calm     Humidity % HourlyPrecipMM in
00:00 18.8 °F 12.8 °F 1005.0 in NNE 7.4 mph 7.4 mph 68 % 0.0 in
00:05 18.8 °F 13.0 °F 1005.0 in ENE 5.6 mph 5.6 mph 69 % 0.0 in
00:06 18.8 °F 13.0 °F 1005.0 in NNE 6.4 mph 6.4 mph 69 % 0.0 in
00:15 15.8 °F 11.8 °F 1005.0 in SW 1.6 mph 3.2 mph 77 % 0.0 in
00:25 15.6 °F 11.4 °F 1005.0 in SW 1.6 mph 3.2 mph 76 % 0.0 in
00:35 15.5 °F 11.3 °F 1005.0 in SW 3.2 mph 3.2 mph 76 % 0.0 in
00:45 15.8 °F 11.2 °F 1005.0 in WSW 3.2 mph 4.8 mph 74 % 0.0 in
00:55 16.0 °F 11.4 °F 1005.0 in WSW 1.6 mph 3.2 mph 74 % 0.0 in
01:05 15.8 °F 11.2 °F 1005.0 in Calm   1.6 mph 74 % 0.0 in
01:15 15.5 °F 10.9 °F 1006.0 in Calm   3.2 mph 74 % 0.0 in
01:25 15.4 °F 11.0 °F 1006.0 in Calm   1.6 mph 75 % 0.0 in
01:35 15.2 °F 10.6 °F 1006.0 in West 1.6 mph 4.8 mph 74 % 0.0 in
01:45 15.1 °F 10.5 °F 1006.0 in WSW 1.6 mph 4.8 mph 74 % 0.0 in
01:55 15.6 °F 11.0 °F 1006.0 in NNE 3.2 mph 3.2 mph 74 % 0.0 in
02:05 16.4 °F 10.9 °F 1006.0 in East 3.2 mph 4.8 mph 70 % 0.0 in
02:15 16.7 °F 10.6 °F 1006.0 in SE 3.2 mph 4.8 mph 67 % 0.0 in
02:25 17.4 °F 10.3 °F 1006.0 in ENE 3.2 mph 4.8 mph 63 % 0.0 in
02:35 17.2 °F 10.3 °F 1006.0 in ENE 3.2 mph 4.8 mph 64 % 0.0 in
02:45 17.8 °F 10.7 °F 1006.0 in SSE 1.6 mph 4.8 mph 63 % 0.0 in
02:55 18.0 °F 10.6 °F 1006.0 in SSE 1.6 mph 3.2 mph 62 % 0.0 in
03:05 18.2 °F 10.6 °F 1006.0 in WSW 3.2 mph 4.8 mph 61 % 0.0 in
03:15 18.3 °F 10.4 °F 1007.0 in West 3.2 mph 8.0 mph 60 % 0.0 in
03:25 18.3 °F 9.9 °F 1006.0 in West 4.8 mph 6.4 mph 58 % 0.0 in
03:35 18.6 °F 9.9 °F 1006.0 in West 8.0 mph 9.7 mph 57 % 0.0 in
03:45 18.7 °F 9.7 °F 1006.0 in WSW 4.8 mph 4.8 mph 56 % 0.0 in
03:55 18.7 °F 9.4 °F 1007.0 in WSW 9.7 mph 11.3 mph 55 % 0.0 in
04:05 18.9 °F 9.4 °F 1007.0 in West 3.2 mph 9.7 mph 54 % 0.0 in
04:15 19.4 °F 9.6 °F 1007.0 in West 4.8 mph 9.7 mph 53 % 0.0 in
04:25 19.7 °F 9.6 °F 1007.0 in West 4.8 mph 9.7 mph 52 % 0.0 in
04:35 19.5 °F 8.8 °F 1007.0 in WSW 4.8 mph 17.7 mph 50 % 0.0 in
04:45 20.1 °F 9.3 °F 1007.0 in WSW 4.8 mph 9.7 mph 50 % 0.0 in
04:55 20.2 °F 9.2 °F 1007.0 in WSW 4.8 mph 12.9 mph 49 % 0.0 in
05:05 20.6 °F 9.5 °F 1007.0 in West 4.8 mph 6.4 mph 49 % 0.0 in
05:15 21.1 °F 9.7 °F 1007.0 in WSW 3.2 mph 4.8 mph 48 % 0.0 in
05:25 21.5 °F 9.7 °F 1007.0 in West 4.8 mph 12.9 mph 47 % 0.0 in
05:35 22.0 °F 9.8 °F 1007.0 in West 4.8 mph 6.4 mph 46 % 0.0 in
05:45 22.6 °F 10.1 °F 1006.0 in West 9.7 mph 9.7 mph 45 % 0.0 in
05:55 22.5 °F 8.9 °F 1006.0 in WSW 4.8 mph 12.9 mph 42 % 0.0 in
06:05 22.8 °F 8.5 °F 1006.0 in WSW 3.2 mph 8.0 mph 40 % 0.0 in
06:15 22.7 °F 8.0 °F 1006.0 in WSW 8.0 mph 12.9 mph 39 % 0.0 in
11:16 23.0 °F 7.9 °F 1006.0 in SW 33.3 mph 33.3 mph 38 % 0.0 in
11:21 23.0 °F 7.5 °F 1006.0 in WNW 11.9 mph 11.9 mph 37 % 0.0 in
11:26 23.3 °F 7.8 °F 1006.0 in SW 13.0 mph 13.0 mph 37 % 0.0 in
11:31 23.1 °F 7.6 °F 1006.0 in SW 20.4 mph 20.4 mph 37 % 0.0 in
11:36 23.4 °F 7.9 °F 1006.0 in WSW 14.8 mph 14.8 mph 37 % 0.0 in
11:41 23.5 °F 7.9 °F 1006.0 in WSW 9.3 mph 9.3 mph 37 % 0.0 in
11:46 24.0 °F 8.4 °F 1006.0 in East 7.4 mph 7.4 mph 37 % 0.0 in
11:51 24.2 °F 8.2 °F 1006.0 in SW 13.0 mph 13.0 mph 36 % 0.0 in
11:56 24.3 °F 8.7 °F 1006.0 in West 6.4 mph 6.4 mph 37 % 0.0 in
12:01 23.9 °F 7.9 °F 1006.0 in WSW 11.1 mph 11.1 mph 36 % 0.0 in
12:06 24.3 °F 7.8 °F 1006.0 in SW 12.2 mph 12.2 mph 35 % 0.0 in
12:11 24.2 °F 7.3 °F 1006.0 in WSW 13.0 mph 13.0 mph 34 % 0.0 in
12:16 24.4 °F 7.5 °F 1006.0 in SW 13.0 mph 13.0 mph 34 % 0.0 in
12:17 24.5 °F 7.6 °F 1006.0 in West 10.0 mph 10.0 mph 34 % 0.0 in
12:22 24.1 °F 6.4 °F 1006.0 in West 12.6 mph 12.6 mph 32 % 0.0 in
12:27 24.4 °F 6.6 °F 1006.0 in SW 7.4 mph 7.4 mph 32 % 0.0 in
12:32 24.6 °F 7.3 °F 1006.0 in SSW 14.8 mph 14.8 mph 33 % 0.0 in
12:37 24.7 °F 6.9 °F 1006.0 in WNW 13.0 mph 13.0 mph 32 % 0.0 in
12:42 24.6 °F 6.3 °F 1006.0 in SW 13.0 mph 13.0 mph 31 % 0.0 in
12:47 24.5 °F 6.3 °F 1006.0 in WSW 14.8 mph 14.8 mph 31 % 0.0 in
12:52 24.3 °F 6.1 °F 1006.0 in WNW 11.1 mph 11.1 mph 31 % 0.0 in
12:57 25.0 °F 6.2 °F 1006.0 in West 7.6 mph 7.6 mph 30 % 0.0 in
13:02 25.2 °F 6.9 °F 1006.0 in WSW 9.3 mph 9.3 mph 31 % 0.0 in
13:07 25.3 °F 6.9 °F 1006.0 in West 14.8 mph 14.8 mph 31 % 0.0 in
13:12 25.4 °F 6.6 °F 1006.0 in WSW 16.9 mph 16.9 mph 30 % 0.0 in
13:17 25.3 °F 6.4 °F 1006.0 in West 14.0 mph 14.0 mph 30 % 0.0 in
13:22 25.5 °F 6.7 °F 1006.0 in SW 9.7 mph 9.7 mph 30 % 0.0 in
13:27 25.3 °F 6.0 °F 1006.0 in WSW 12.6 mph 12.6 mph 29 % 0.0 in
13:32 25.4 °F 6.1 °F 1006.0 in West 13.0 mph 13.0 mph 29 % 0.0 in
13:37 26.0 °F 6.6 °F 1006.0 in NNW 5.6 mph 5.8 mph 29 % 0.0 in
13:42 25.3 °F 6.0 °F 1006.0 in WNW 14.8 mph 14.8 mph 29 % 0.0 in
13:47 25.2 °F 5.4 °F 1006.0 in WSW 20.4 mph 20.4 mph 28 % 0.0 in
13:52 25.5 °F 5.7 °F 1006.0 in WSW 12.2 mph 12.2 mph 28 % 0.0 in
13:57 25.5 °F 5.7 °F 1007.0 in West 14.8 mph 14.8 mph 28 % 0.0 in
14:02 25.7 °F 5.8 °F 1007.0 in West 13.0 mph 13.0 mph 28 % 0.0 in
14:07 25.9 °F 6.0 °F 1007.0 in WSW 7.4 mph 7.4 mph 28 % 0.0 in
14:12 26.1 °F 6.2 °F 1007.0 in SW 11.1 mph 11.1 mph 28 % 0.0 in
14:17 26.2 °F 6.2 °F 1007.0 in SW 9.3 mph 9.3 mph 28 % 0.0 in
14:22 25.9 °F 6.0 °F 1007.0 in West 15.6 mph 15.6 mph 28 % 0.0 in
14:27 25.9 °F 5.4 °F 1007.0 in WSW 16.7 mph 16.7 mph 27 % 0.0 in
14:32 25.9 °F 5.4 °F 1007.0 in SW 16.7 mph 16.7 mph 27 % 0.0 in
14:37 26.0 °F 5.6 °F 1007.0 in SSE 6.9 mph 6.9 mph 27 % 0.0 in
14:42 26.2 °F 5.7 °F 1007.0 in South 14.8 mph 14.8 mph 27 % 0.0 in
14:47 26.5 °F 6.0 °F 1007.0 in West 9.3 mph 9.3 mph 27 % 0.0 in
14:52 26.1 °F 6.2 °F 1007.0 in WSW 9.0 mph 9.0 mph 28 % 0.0 in
14:57 26.1 °F 5.6 °F 1007.0 in West 9.3 mph 9.3 mph 27 % 0.0 in
15:02 26.3 °F 5.8 °F 1007.0 in WSW 13.0 mph 13.0 mph 27 % 0.0 in
15:05 26.8 °F 6.2 °F 1007.0 in South 7.9 mph 7.9 mph 27 % 0.0 in
15:10 26.5 °F 6.0 °F 1007.0 in WSW 14.8 mph 14.8 mph 27 % 0.0 in
15:15 26.5 °F 6.0 °F 1006.0 in WNW 19.8 mph 19.8 mph 27 % 0.0 in
15:20 26.6 °F 6.1 °F 1006.0 in SW 20.4 mph 20.4 mph 27 % 0.0 in
15:25 26.5 °F 5.4 °F 1006.0 in WSW 13.0 mph 13.0 mph 26 % 0.0 in
15:30 26.5 °F 6.0 °F 1006.0 in South 14.8 mph 14.8 mph 27 % 0.0 in
15:35 25.8 °F 5.4 °F 1006.0 in SW 9.7 mph 9.7 mph 27 % 0.0 in
15:40 25.5 °F 4.6 °F 1006.0 in SSW 14.8 mph 14.8 mph 26 % 0.0 in
15:45 25.3 °F 4.9 °F 1006.0 in WSW 13.0 mph 13.0 mph 27 % 0.0 in
15:46 25.3 °F 4.4 °F 1006.0 in West 18.5 mph 18.5 mph 26 % 0.0 in
15:51 26.1 °F 5.1 °F 1006.0 in West 13.0 mph 13.0 mph 26 % 0.0 in
15:56 25.6 °F 4.7 °F 1006.0 in WSW 9.3 mph 9.3 mph 26 % 0.0 in
16:01 26.2 °F 5.2 °F 1006.0 in West 9.3 mph 9.3 mph 26 % 0.0 in
16:06 26.6 °F 6.1 °F 1006.0 in WSW 20.4 mph 20.4 mph 27 % 0.0 in
16:11 26.5 °F 5.4 °F 1006.0 in WSW 14.8 mph 14.8 mph 26 % 0.0 in
16:16 26.7 °F 5.6 °F 1006.0 in NNW 9.3 mph 9.3 mph 26 % 0.0 in
16:21 26.4 °F 5.3 °F 1006.0 in WSW 16.7 mph 16.7 mph 26 % 0.0 in
16:26 26.7 °F 5.6 °F 1006.0 in West 16.4 mph 16.4 mph 26 % 0.0 in
16:31 26.6 °F 5.5 °F 1006.0 in SW 9.5 mph 9.5 mph 26 % 0.0 in
16:36 26.5 °F 5.4 °F 1006.0 in NNW 16.7 mph 16.7 mph 26 % 0.0 in
16:41 26.4 °F 5.3 °F 1006.0 in NNW 16.7 mph 16.7 mph 26 % 0.0 in
16:46 25.7 °F 4.7 °F 1006.0 in West 9.3 mph 9.3 mph 26 % 0.0 in
16:51 26.2 °F 5.2 °F 1006.0 in WNW 18.5 mph 18.5 mph 26 % 0.0 in
16:56 26.6 °F 4.9 °F 1006.0 in SW 14.8 mph 14.8 mph 25 % 0.0 in
17:01 26.3 °F 4.7 °F 1006.0 in WSW 13.0 mph 13.0 mph 25 % 0.0 in
17:06 26.5 °F 4.9 °F 1006.0 in West 24.1 mph 24.1 mph 25 % 0.0 in
17:07 26.6 °F 4.9 °F 1006.0 in SW 9.3 mph 9.3 mph 25 % 0.0 in
17:12 26.9 °F 5.2 °F 1006.0 in WSW 16.9 mph 16.9 mph 25 % 0.0 in
17:17 26.5 °F 4.9 °F 1006.0 in SW 13.0 mph 13.0 mph 25 % 0.0 in
17:22 26.7 °F 5.1 °F 1006.0 in West 9.3 mph 9.3 mph 25 % 0.0 in
17:27 26.6 °F 4.9 °F 1006.0 in WNW 13.0 mph 13.0 mph 25 % 0.0 in
17:32 26.8 °F 5.1 °F 1006.0 in WSW 14.8 mph 14.8 mph 25 % 0.0 in
17:37 26.9 °F 4.6 °F 1006.0 in WSW 24.1 mph 24.1 mph 24 % 0.0 in
17:42 26.4 °F 4.2 °F 1006.0 in WSW 11.1 mph 11.1 mph 24 % 0.0 in
17:47 26.5 °F 4.3 °F 1006.0 in West 13.0 mph 13.0 mph 24 % 0.0 in
17:52 26.6 °F 4.4 °F 1006.0 in WSW 14.8 mph 14.8 mph 24 % 0.0 in
17:57 26.7 °F 4.4 °F 1005.0 in WSW 9.3 mph 9.3 mph 24 % 0.0 in
18:02 26.8 °F 4.6 °F 1005.0 in West 14.8 mph 14.8 mph 24 % 0.0 in
18:07 26.9 °F 4.6 °F 1005.0 in West 18.5 mph 18.5 mph 24 % 0.0 in
18:12 26.6 °F 4.4 °F 1006.0 in WSW 13.0 mph 13.0 mph 24 % 0.0 in
18:17 26.7 °F 4.4 °F 1006.0 in WSW 11.1 mph 11.1 mph 24 % 0.0 in
18:22 26.2 °F 3.4 °F 1006.0 in NW 14.8 mph 14.8 mph 23 % 0.0 in
18:27 26.5 °F 3.7 °F 1006.0 in SSW 14.8 mph 14.8 mph 23 % 0.0 in
18:32 26.4 °F 3.6 °F 1006.0 in WSW 22.2 mph 22.2 mph 23 % 0.0 in
18:37 26.1 °F 2.7 °F 1006.0 in West 14.8 mph 14.8 mph 22 % 0.0 in
18:42 26.1 °F 2.7 °F 1006.0 in WSW 11.1 mph 11.1 mph 22 % 0.0 in
18:47 26.1 °F 2.7 °F 1006.0 in West 14.8 mph 14.8 mph 22 % 0.0 in
18:52 26.0 °F 2.6 °F 1006.0 in West 15.1 mph 15.1 mph 22 % 0.0 in
18:57 25.9 °F 2.6 °F 1006.0 in West 9.3 mph 9.3 mph 22 % 0.0 in
19:02 25.9 °F 2.6 °F 1006.0 in WSW 11.1 mph 11.1 mph 22 % 0.0 in
19:07 26.0 °F 2.6 °F 1006.0 in SW 13.0 mph 13.0 mph 22 % 0.0 in
19:12 25.9 °F 2.6 °F 1006.0 in SW 13.0 mph 13.0 mph 22 % 0.0 in
19:17 25.8 °F 2.4 °F 1006.0 in SW 3.7 mph 3.7 mph 22 % 0.0 in
19:22 25.8 °F 2.4 °F 1006.0 in WNW 20.4 mph 20.4 mph 22 % 0.0 in
19:27 25.5 °F 2.2 °F 1006.0 in WNW 14.8 mph 14.8 mph 22 % 0.0 in
19:32 25.6 °F 2.3 °F 1006.0 in NW 14.8 mph 14.8 mph 22 % 0.0 in
19:35 18.8 °F 8.2 °F 1010.0 in East 3.2 mph 6.4 mph 50 % 0.0 in
19:37 25.6 °F 2.3 °F 1006.0 in WSW 9.3 mph 9.3 mph 22 % 0.0 in
19:42 25.5 °F 2.2 °F 1006.0 in West 7.4 mph 7.4 mph 22 % 0.0 in
19:45 18.6 °F 7.7 °F 1010.0 in East 3.2 mph 4.8 mph 49 % 0.0 in
19:47 25.6 °F 2.9 °F 1006.0 in WSW 7.4 mph 7.4 mph 23 % 0.0 in
19:52 25.5 °F 2.8 °F 1006.0 in WSW 13.0 mph 13.0 mph 23 % 0.0 in
19:55 18.5 °F 7.6 °F 1010.0 in East 8.0 mph 8.0 mph 49 % 0.0 in
19:57 25.3 °F 2.1 °F 1006.0 in West 9.3 mph 9.3 mph 22 % 0.0 in
20:02 25.3 °F 2.1 °F 1006.0 in SSE 5.6 mph 5.6 mph 22 % 0.0 in
20:05 18.5 °F 7.6 °F 1010.0 in ENE 3.2 mph 9.7 mph 49 % 0.0 in
20:07 25.1 °F 1.9 °F 1006.0 in SW 13.0 mph 13.0 mph 22 % 0.0 in
20:12 24.9 °F 2.3 °F 1006.0 in West 13.0 mph 13.0 mph 23 % 0.0 in
20:15 18.3 °F 7.4 °F 1009.0 in NE 3.2 mph 4.8 mph 49 % 0.0 in
20:17 24.8 °F 2.2 °F 1006.0 in SSE 7.4 mph 7.4 mph 23 % 0.0 in
20:22 24.7 °F 2.2 °F 1006.0 in WNW 12.2 mph 12.2 mph 23 % 0.0 in
20:25 18.2 °F 7.3 °F 1009.0 in NE 3.2 mph 6.4 mph 49 % 0.0 in
20:27 24.7 °F 2.8 °F 1006.0 in WSW 10.0 mph 10.0 mph 24 % 0.0 in
20:32 24.6 °F 2.7 °F 1006.0 in South 5.6 mph 5.6 mph 24 % 0.0 in
20:35 18.1 °F 7.2 °F 1009.0 in East 4.8 mph 4.8 mph 49 % 0.0 in
20:37 24.4 °F 3.1 °F 1006.0 in West 7.4 mph 7.4 mph 25 % 0.0 in
20:42 23.8 °F 4.2 °F 1006.0 in South 11.1 mph 11.1 mph 28 % 0.0 in
20:45 18.1 °F 7.2 °F 1010.0 in ESE 4.8 mph 9.7 mph 49 % 0.0 in
20:47 23.4 °F 3.8 °F 1006.0 in SW 12.2 mph 12.2 mph 28 % 0.0 in
20:52 23.2 °F 4.2 °F 1006.0 in SW 20.4 mph 20.4 mph 29 % 0.0 in
20:55 18.1 °F 7.2 °F 1010.0 in East 3.2 mph 6.4 mph 49 % 0.0 in
20:57 23.0 °F 4.5 °F 1007.0 in SW 13.0 mph 13.0 mph 30 % 0.0 in
21:02 22.8 °F 4.8 °F 1007.0 in SSW 13.0 mph 13.0 mph 31 % 0.0 in
21:05 18.0 °F 6.8 °F 1010.0 in ENE 4.8 mph 8.0 mph 48 % 0.0 in
21:07 22.6 °F 4.6 °F 1007.0 in SW 9.7 mph 9.7 mph 31 % 0.0 in
21:12 22.4 °F 4.9 °F 1007.0 in SW 7.4 mph 7.4 mph 32 % 0.0 in
21:15 17.9 °F 6.7 °F 1009.0 in NE 3.2 mph 6.4 mph 48 % 0.0 in
21:17 22.3 °F 4.8 °F 1007.0 in SSW 14.8 mph 14.8 mph 32 % 0.0 in
21:22 22.1 °F 5.1 °F 1007.0 in SW 11.1 mph 11.1 mph 33 % 0.0 in
21:25 17.7 °F 6.8 °F 1010.0 in NE 3.2 mph 6.4 mph 49 % 0.0 in
21:27 22.0 °F 5.4 °F 1007.0 in WSW 5.6 mph 5.8 mph 34 % 0.0 in
21:32 21.9 °F 5.3 °F 1007.0 in SW 11.1 mph 11.1 mph 34 % 0.0 in
21:35 17.6 °F 6.8 °F 1010.0 in NE 1.6 mph 4.8 mph 49 % 0.0 in
21:37 21.8 °F 5.7 °F 1007.0 in SW 9.3 mph 9.3 mph 35 % 0.0 in
21:42 21.6 °F 5.5 °F 1007.0 in SSW 9.3 mph 9.3 mph 35 % 0.0 in
21:45 17.5 °F 6.7 °F 1010.0 in Calm   4.8 mph 49 % 0.0 in
21:47 21.5 °F 5.8 °F 1007.0 in SW 9.3 mph 9.3 mph 36 % 0.0 in
21:52 21.4 °F 5.7 °F 1007.0 in SW 7.4 mph 7.4 mph 36 % 0.0 in
21:55 17.3 °F 6.5 °F 1010.0 in Calm   1.6 mph 49 % 0.0 in
21:57 21.3 °F 6.0 °F 1007.0 in SW 7.4 mph 7.4 mph 37 % 0.0 in
22:02 21.2 °F 6.3 °F 1007.0 in West 7.4 mph 7.4 mph 38 % 0.0 in
22:05 17.2 °F 6.4 °F 1010.0 in ENE 3.2 mph 3.2 mph 49 % 0.0 in
22:07 21.2 °F 6.7 °F 1007.0 in SW 7.4 mph 7.4 mph 39 % 0.0 in
22:12 21.0 °F 6.5 °F 1008.0 in WSW 9.3 mph 9.3 mph 39 % 0.0 in
22:15 17.0 °F 6.2 °F 1010.0 in ENE 1.6 mph 3.2 mph 49 % 0.0 in
22:17 20.9 °F 6.8 °F 1008.0 in SW 5.6 mph 5.8 mph 40 % 0.0 in
22:22 20.7 °F 6.9 °F 1008.0 in SW 7.4 mph 7.4 mph 41 % 0.0 in
22:25 16.9 °F 6.7 °F 1010.0 in NE 1.6 mph 3.2 mph 51 % 0.0 in
22:27 20.6 °F 6.9 °F 1007.0 in SW 7.4 mph 7.4 mph 41 % 0.0 in
22:32 20.6 °F 7.2 °F 1007.0 in SW 5.6 mph 5.6 mph 42 % 0.0 in
22:35 16.8 °F 6.6 °F 1010.0 in ENE 1.6 mph 4.8 mph 51 % 0.0 in
22:37 20.5 °F 7.2 °F 1007.0 in West 11.1 mph 11.1 mph 42 % 0.0 in
22:42 20.4 °F 7.4 °F 1008.0 in WSW 5.6 mph 5.6 mph 43 % 0.0 in
22:45 16.8 °F 6.6 °F 1010.0 in ENE 1.6 mph 4.8 mph 51 % 0.0 in
22:47 20.3 °F 7.3 °F 1008.0 in SW 5.6 mph 5.6 mph 43 % 0.0 in
22:52 20.2 °F 7.6 °F 1008.0 in SW 5.6 mph 5.6 mph 44 % 0.0 in
22:55 16.8 °F 6.6 °F 1010.0 in ENE 3.2 mph 4.8 mph 51 % 0.0 in
22:57 20.1 °F 7.4 °F 1008.0 in SW 4.7 mph 4.7 mph 44 % 0.0 in
23:02 20.0 °F 7.7 °F 1008.0 in WSW 5.8 mph 5.8 mph 45 % 0.0 in
23:05 16.9 °F 6.7 °F 1010.0 in ENE 4.8 mph 4.8 mph 51 % 0.0 in
23:07 20.0 °F 7.7 °F 1008.0 in SW 4.7 mph 4.7 mph 45 % 0.0 in
23:12 19.9 °F 7.6 °F 1008.0 in SSW 5.0 mph 5.0 mph 45 % 0.0 in
23:15 16.8 °F 6.9 °F 1010.0 in ENE 3.2 mph 3.2 mph 52 % 0.0 in
23:17 19.8 °F 7.8 °F 1008.0 in SW 3.7 mph 3.7 mph 46 % 0.0 in
23:22 19.8 °F 7.8 °F 1008.0 in SW 3.7 mph 3.7 mph 46 % 0.0 in
23:25 16.8 °F 6.9 °F 1009.0 in NE 3.2 mph 4.8 mph 52 % 0.0 in
23:27 19.7 °F 7.7 °F 1009.0 in SW 3.7 mph 3.7 mph 46 % 0.0 in
23:32 19.7 °F 8.1 °F 1009.0 in West 1.9 mph   47 % 0.0 in
23:35 16.7 °F 6.8 °F 1009.0 in Calm   4.8 mph 52 % 0.0 in
23:37 19.7 °F 8.4 °F 1009.0 in NE 1.9 mph 1.9 mph 48 % 0.0 in
23:42 19.7 °F 8.4 °F 1009.0 in ENE 3.7 mph 3.7 mph 48 % 0.0 in
23:45 16.6 °F 6.7 °F 1010.0 in Calm   4.8 mph 52 % 0.0 in
23:47 19.7 °F 8.4 °F 1009.0 in ENE 5.6 mph 5.6 mph 48 % 0.0 in
23:52 19.7 °F 8.4 °F 1009.0 in ENE 3.7 mph 3.7 mph 48 % 0.0 in
23:55 16.4 °F 6.5 °F 1010.0 in NE 3.2 mph 4.8 mph 52 % 0.0 in
23:57 19.6 °F 8.3 °F 1009.0 in ENE 3.7 mph 3.7 mph 48 % 0.0 in
Meteo Sesrovires
Elogis d' Weather Underground - 1.5 mb

Guio original per  Jim McMurry - jmcmurry@mwt.net Adaptat per a la plantilla per  Wim van der Kuil - Leuven-Template.eu

Trobareu la nostra informacio del temps tambe a:

Weather Underground

AWEKAS